sensor_id;sensor_type;location;lat;lon;timestamp;temperature;humidity
54832;DHT22;40730;53.068;6.572;2023-12-29T00:01:32;9.90;99.90
54832;DHT22;40730;53.068;6.572;2023-12-29T00:03:57;9.90;99.90
54832;DHT22;40730;53.068;6.572;2023-12-29T00:06:23;9.90;99.90
54832;DHT22;40730;53.068;6.572;2023-12-29T00:08:49;9.90;99.90
54832;DHT22;40730;53.068;6.572;2023-12-29T00:11:19;9.90;99.90
54832;DHT22;40730;53.068;6.572;2023-12-29T00:13:45;9.90;99.90
54832;DHT22;40730;53.068;6.572;2023-12-29T00:16:10;10.00;99.90
54832;DHT22;40730;53.068;6.572;2023-12-29T00:18:39;10.00;99.90
54832;DHT22;40730;53.068;6.572;2023-12-29T00:21:05;10.00;99.90
54832;DHT22;40730;53.068;6.572;2023-12-29T00:23:31;10.00;99.90
54832;DHT22;40730;53.068;6.572;2023-12-29T00:25:56;10.00;99.90
54832;DHT22;40730;53.068;6.572;2023-12-29T00:28:22;10.00;99.90
54832;DHT22;40730;53.068;6.572;2023-12-29T00:30:48;9.90;99.90
54832;DHT22;40730;53.068;6.572;2023-12-29T00:33:13;10.00;99.90
54832;DHT22;40730;53.068;6.572;2023-12-29T00:35:39;9.90;99.90
54832;DHT22;40730;53.068;6.572;2023-12-29T00:38:05;9.90;99.90
54832;DHT22;40730;53.068;6.572;2023-12-29T00:40:32;9.90;99.90
54832;DHT22;40730;53.068;6.572;2023-12-29T00:42:58;9.90;99.90
54832;DHT22;40730;53.068;6.572;2023-12-29T00:45:23;9.90;99.90
54832;DHT22;40730;53.068;6.572;2023-12-29T00:47:49;9.90;99.90
54832;DHT22;40730;53.068;6.572;2023-12-29T00:50:16;9.90;99.90
54832;DHT22;40730;53.068;6.572;2023-12-29T00:52:42;10.00;99.90
54832;DHT22;40730;53.068;6.572;2023-12-29T00:55:07;10.00;99.90
54832;DHT22;40730;53.068;6.572;2023-12-29T00:57:33;9.80;99.90
54832;DHT22;40730;53.068;6.572;2023-12-29T01:00:00;9.70;99.90
54832;DHT22;40730;53.068;6.572;2023-12-29T01:02:25;9.60;99.90
54832;DHT22;40730;53.068;6.572;2023-12-29T01:04:51;9.50;99.90
54832;DHT22;40730;53.068;6.572;2023-12-29T01:07:16;9.40;99.90
54832;DHT22;40730;53.068;6.572;2023-12-29T01:09:42;9.40;99.90
54832;DHT22;40730;53.068;6.572;2023-12-29T01:12:08;9.40;99.90
54832;DHT22;40730;53.068;6.572;2023-12-29T01:14:33;9.40;99.90
54832;DHT22;40730;53.068;6.572;2023-12-29T01:16:59;9.30;99.90
54832;DHT22;40730;53.068;6.572;2023-12-29T01:19:25;9.30;99.90
54832;DHT22;40730;53.068;6.572;2023-12-29T01:21:50;9.30;99.90
54832;DHT22;40730;53.068;6.572;2023-12-29T01:24:16;9.30;99.90
54832;DHT22;40730;53.068;6.572;2023-12-29T01:26:41;9.30;99.90
54832;DHT22;40730;53.068;6.572;2023-12-29T01:29:07;9.30;99.90
54832;DHT22;40730;53.068;6.572;2023-12-29T01:31:32;9.30;99.90
54832;DHT22;40730;53.068;6.572;2023-12-29T01:33:58;9.40;99.90
54832;DHT22;40730;53.068;6.572;2023-12-29T01:36:24;9.40;99.90
54832;DHT22;40730;53.068;6.572;2023-12-29T01:38:50;9.40;99.90
54832;DHT22;40730;53.068;6.572;2023-12-29T01:41:16;9.40;99.90
54832;DHT22;40730;53.068;6.572;2023-12-29T01:46:24;9.40;99.90
54832;DHT22;40730;53.068;6.572;2023-12-29T01:48:49;9.10;99.90
54832;DHT22;40730;53.068;6.572;2023-12-29T01:51:17;8.90;99.90
54832;DHT22;40730;53.068;6.572;2023-12-29T01:53:43;8.90;99.90
54832;DHT22;40730;53.068;6.572;2023-12-29T01:56:09;8.80;99.90
54832;DHT22;40730;53.068;6.572;2023-12-29T01:58:35;8.80;99.90
54832;DHT22;40730;53.068;6.572;2023-12-29T02:01:02;8.80;99.90
54832;DHT22;40730;53.068;6.572;2023-12-29T02:03:28;8.90;99.90
54832;DHT22;40730;53.068;6.572;2023-12-29T02:05:55;8.90;99.90
54832;DHT22;40730;53.068;6.572;2023-12-29T02:08:24;8.60;99.90
54832;DHT22;40730;53.068;6.572;2023-12-29T02:10:49;8.20;99.90
54832;DHT22;40730;53.068;6.572;2023-12-29T02:13:15;7.70;99.90
54832;DHT22;40730;53.068;6.572;2023-12-29T02:15:41;6.80;99.90
54832;DHT22;40730;53.068;6.572;2023-12-29T02:18:09;6.10;99.90
54832;DHT22;40730;53.068;6.572;2023-12-29T02:20:37;6.00;99.90
54832;DHT22;40730;53.068;6.572;2023-12-29T02:23:03;5.70;99.90
54832;DHT22;40730;53.068;6.572;2023-12-29T02:25:29;5.60;99.90
54832;DHT22;40730;53.068;6.572;2023-12-29T02:28:01;5.50;99.90
54832;DHT22;40730;53.068;6.572;2023-12-29T02:30:43;5.70;99.90
54832;DHT22;40730;53.068;6.572;2023-12-29T02:33:14;6.00;99.90
54832;DHT22;40730;53.068;6.572;2023-12-29T02:35:43;6.20;99.90
54832;DHT22;40730;53.068;6.572;2023-12-29T02:38:09;6.30;99.90
54832;DHT22;40730;53.068;6.572;2023-12-29T02:40:36;6.40;99.90
54832;DHT22;40730;53.068;6.572;2023-12-29T02:43:02;6.60;99.90
54832;DHT22;40730;53.068;6.572;2023-12-29T02:45:28;6.70;99.90
54832;DHT22;40730;53.068;6.572;2023-12-29T02:47:54;6.90;99.90
54832;DHT22;40730;53.068;6.572;2023-12-29T02:50:19;7.00;99.90
54832;DHT22;40730;53.068;6.572;2023-12-29T02:52:45;7.10;99.90
54832;DHT22;40730;53.068;6.572;2023-12-29T02:55:10;7.20;99.90
54832;DHT22;40730;53.068;6.572;2023-12-29T02:57:37;7.30;99.90
54832;DHT22;40730;53.068;6.572;2023-12-29T03:00:03;7.60;99.90
54832;DHT22;40730;53.068;6.572;2023-12-29T03:02:29;7.80;99.90
54832;DHT22;40730;53.068;6.572;2023-12-29T03:04:55;8.10;99.90
54832;DHT22;40730;53.068;6.572;2023-12-29T03:07:20;8.30;99.90
54832;DHT22;40730;53.068;6.572;2023-12-29T03:09:46;8.40;99.90
54832;DHT22;40730;53.068;6.572;2023-12-29T03:12:11;8.50;99.90
54832;DHT22;40730;53.068;6.572;2023-12-29T03:14:37;8.60;99.90
54832;DHT22;40730;53.068;6.572;2023-12-29T03:17:03;8.70;99.90
54832;DHT22;40730;53.068;6.572;2023-12-29T03:19:28;8.80;99.90
54832;DHT22;40730;53.068;6.572;2023-12-29T03:21:54;8.80;99.90
54832;DHT22;40730;53.068;6.572;2023-12-29T03:24:20;8.80;99.90
54832;DHT22;40730;53.068;6.572;2023-12-29T03:26:45;8.80;99.90
54832;DHT22;40730;53.068;6.572;2023-12-29T03:29:11;8.80;99.90
54832;DHT22;40730;53.068;6.572;2023-12-29T03:31:37;8.80;99.90
54832;DHT22;40730;53.068;6.572;2023-12-29T03:34:02;8.90;99.90
54832;DHT22;40730;53.068;6.572;2023-12-29T03:36:28;8.90;99.90
54832;DHT22;40730;53.068;6.572;2023-12-29T03:38:53;9.00;99.90
54832;DHT22;40730;53.068;6.572;2023-12-29T03:41:19;9.00;99.90
54832;DHT22;40730;53.068;6.572;2023-12-29T03:43:44;9.00;99.90
54832;DHT22;40730;53.068;6.572;2023-12-29T03:46:22;9.00;99.90
54832;DHT22;40730;53.068;6.572;2023-12-29T03:48:48;9.00;99.90
54832;DHT22;40730;53.068;6.572;2023-12-29T03:51:15;9.00;99.90
54832;DHT22;40730;53.068;6.572;2023-12-29T03:53:41;9.00;99.90
54832;DHT22;40730;53.068;6.572;2023-12-29T03:56:07;8.90;99.90
54832;DHT22;40730;53.068;6.572;2023-12-29T03:58:34;8.90;99.90
54832;DHT22;40730;53.068;6.572;2023-12-29T04:00:59;8.90;99.90
54832;DHT22;40730;53.068;6.572;2023-12-29T04:03:25;8.90;99.90
54832;DHT22;40730;53.068;6.572;2023-12-29T04:05:50;8.90;99.90
54832;DHT22;40730;53.068;6.572;2023-12-29T04:08:16;8.80;99.90
54832;DHT22;40730;53.068;6.572;2023-12-29T04:10:41;8.80;99.90
54832;DHT22;40730;53.068;6.572;2023-12-29T04:13:07;8.80;99.90
54832;DHT22;40730;53.068;6.572;2023-12-29T04:15:33;8.80;99.90
54832;DHT22;40730;53.068;6.572;2023-12-29T04:17:58;8.80;99.90
54832;DHT22;40730;53.068;6.572;2023-12-29T04:20:24;8.80;99.90
54832;DHT22;40730;53.068;6.572;2023-12-29T04:22:50;8.80;99.90
54832;DHT22;40730;53.068;6.572;2023-12-29T04:25:15;8.90;99.90
54832;DHT22;40730;53.068;6.572;2023-12-29T04:27:41;8.90;99.90
54832;DHT22;40730;53.068;6.572;2023-12-29T04:30:07;8.90;99.90
54832;DHT22;40730;53.068;6.572;2023-12-29T04:32:33;8.90;99.90
54832;DHT22;40730;53.068;6.572;2023-12-29T04:34:58;8.80;99.90
54832;DHT22;40730;53.068;6.572;2023-12-29T04:37:24;8.80;99.90
54832;DHT22;40730;53.068;6.572;2023-12-29T04:39:49;8.80;99.90
54832;DHT22;40730;53.068;6.572;2023-12-29T04:42:15;8.70;99.90
54832;DHT22;40730;53.068;6.572;2023-12-29T04:44:42;8.70;99.90
54832;DHT22;40730;53.068;6.572;2023-12-29T04:47:07;8.70;99.90
54832;DHT22;40730;53.068;6.572;2023-12-29T04:49:33;8.70;99.90
54832;DHT22;40730;53.068;6.572;2023-12-29T04:51:59;8.70;99.90
54832;DHT22;40730;53.068;6.572;2023-12-29T04:54:25;8.60;99.90
54832;DHT22;40730;53.068;6.572;2023-12-29T04:56:50;8.60;99.90
54832;DHT22;40730;53.068;6.572;2023-12-29T04:59:16;8.60;99.90
54832;DHT22;40730;53.068;6.572;2023-12-29T05:01:42;8.70;99.90
54832;DHT22;40730;53.068;6.572;2023-12-29T05:04:07;8.60;99.90
54832;DHT22;40730;53.068;6.572;2023-12-29T05:06:33;8.60;99.90
54832;DHT22;40730;53.068;6.572;2023-12-29T05:08:59;8.70;99.90
54832;DHT22;40730;53.068;6.572;2023-12-29T05:11:24;8.70;99.90
54832;DHT22;40730;53.068;6.572;2023-12-29T05:13:50;8.70;99.90
54832;DHT22;40730;53.068;6.572;2023-12-29T05:16:16;8.80;99.90
54832;DHT22;40730;53.068;6.572;2023-12-29T05:18:41;8.80;99.90
54832;DHT22;40730;53.068;6.572;2023-12-29T05:21:14;8.80;99.90
54832;DHT22;40730;53.068;6.572;2023-12-29T05:23:40;8.90;99.90
54832;DHT22;40730;53.068;6.572;2023-12-29T05:26:05;9.00;99.90
54832;DHT22;40730;53.068;6.572;2023-12-29T05:28:31;8.90;99.90
54832;DHT22;40730;53.068;6.572;2023-12-29T05:30:56;8.80;99.90
54832;DHT22;40730;53.068;6.572;2023-12-29T05:33:23;8.90;99.90
54832;DHT22;40730;53.068;6.572;2023-12-29T05:35:49;8.90;99.90
54832;DHT22;40730;53.068;6.572;2023-12-29T05:38:14;8.80;99.90
54832;DHT22;40730;53.068;6.572;2023-12-29T05:40:40;8.80;99.90
54832;DHT22;40730;53.068;6.572;2023-12-29T05:43:07;8.80;99.90
54832;DHT22;40730;53.068;6.572;2023-12-29T05:45:32;8.80;99.90
54832;DHT22;40730;53.068;6.572;2023-12-29T05:47:58;8.80;99.90
54832;DHT22;40730;53.068;6.572;2023-12-29T05:50:24;8.80;99.90
54832;DHT22;40730;53.068;6.572;2023-12-29T05:52:49;8.80;99.90
54832;DHT22;40730;53.068;6.572;2023-12-29T05:55:18;8.80;99.90
54832;DHT22;40730;53.068;6.572;2023-12-29T05:57:44;8.80;99.90
54832;DHT22;40730;53.068;6.572;2023-12-29T06:00:10;8.90;99.90
54832;DHT22;40730;53.068;6.572;2023-12-29T06:02:40;8.80;99.90
54832;DHT22;40730;53.068;6.572;2023-12-29T06:05:07;8.90;99.90
54832;DHT22;40730;53.068;6.572;2023-12-29T06:07:33;8.90;99.90
54832;DHT22;40730;53.068;6.572;2023-12-29T06:09:59;8.90;99.90
54832;DHT22;40730;53.068;6.572;2023-12-29T06:12:25;8.90;99.90
54832;DHT22;40730;53.068;6.572;2023-12-29T06:14:50;9.00;99.90
54832;DHT22;40730;53.068;6.572;2023-12-29T06:17:16;9.10;99.90
54832;DHT22;40730;53.068;6.572;2023-12-29T06:19:42;9.00;99.90
54832;DHT22;40730;53.068;6.572;2023-12-29T06:22:07;9.00;99.90
54832;DHT22;40730;53.068;6.572;2023-12-29T06:24:37;9.00;99.90
54832;DHT22;40730;53.068;6.572;2023-12-29T06:27:03;9.10;99.90
54832;DHT22;40730;53.068;6.572;2023-12-29T06:29:29;9.10;99.90
54832;DHT22;40730;53.068;6.572;2023-12-29T06:31:55;9.10;99.90
54832;DHT22;40730;53.068;6.572;2023-12-29T06:34:20;9.10;99.90
54832;DHT22;40730;53.068;6.572;2023-12-29T06:36:46;9.10;99.90
54832;DHT22;40730;53.068;6.572;2023-12-29T06:39:12;9.00;99.90
54832;DHT22;40730;53.068;6.572;2023-12-29T06:41:37;8.90;99.90
54832;DHT22;40730;53.068;6.572;2023-12-29T06:44:03;8.90;99.90
54832;DHT22;40730;53.068;6.572;2023-12-29T06:46:29;8.90;99.90
54832;DHT22;40730;53.068;6.572;2023-12-29T06:48:54;8.90;99.90
54832;DHT22;40730;53.068;6.572;2023-12-29T06:51:20;8.90;99.90
54832;DHT22;40730;53.068;6.572;2023-12-29T06:53:48;8.90;99.90
54832;DHT22;40730;53.068;6.572;2023-12-29T06:56:15;8.80;99.90
54832;DHT22;40730;53.068;6.572;2023-12-29T06:58:41;8.90;99.90
54832;DHT22;40730;53.068;6.572;2023-12-29T07:01:07;8.90;99.90
54832;DHT22;40730;53.068;6.572;2023-12-29T07:03:33;8.90;99.90
54832;DHT22;40730;53.068;6.572;2023-12-29T07:06:02;8.90;99.90
54832;DHT22;40730;53.068;6.572;2023-12-29T07:08:28;9.00;99.90
54832;DHT22;40730;53.068;6.572;2023-12-29T07:10:54;9.00;99.90
54832;DHT22;40730;53.068;6.572;2023-12-29T07:13:19;9.00;99.90
54832;DHT22;40730;53.068;6.572;2023-12-29T07:15:47;9.00;99.90
54832;DHT22;40730;53.068;6.572;2023-12-29T07:18:13;9.00;99.90
54832;DHT22;40730;53.068;6.572;2023-12-29T07:20:39;9.00;99.90
54832;DHT22;40730;53.068;6.572;2023-12-29T07:23:05;8.90;99.90
54832;DHT22;40730;53.068;6.572;2023-12-29T07:25:30;9.00;99.90
54832;DHT22;40730;53.068;6.572;2023-12-29T07:27:56;9.00;99.90
54832;DHT22;40730;53.068;6.572;2023-12-29T07:30:22;9.00;99.90
54832;DHT22;40730;53.068;6.572;2023-12-29T07:32:47;8.90;99.90
54832;DHT22;40730;53.068;6.572;2023-12-29T07:35:13;8.90;99.90
54832;DHT22;40730;53.068;6.572;2023-12-29T07:37:43;8.80;99.90
54832;DHT22;40730;53.068;6.572;2023-12-29T07:40:11;8.80;99.90
54832;DHT22;40730;53.068;6.572;2023-12-29T07:42:38;8.80;99.90
54832;DHT22;40730;53.068;6.572;2023-12-29T07:45:05;8.80;99.90
54832;DHT22;40730;53.068;6.572;2023-12-29T07:47:31;8.80;99.90
54832;DHT22;40730;53.068;6.572;2023-12-29T07:49:57;8.80;99.90
54832;DHT22;40730;53.068;6.572;2023-12-29T07:52:22;8.90;99.90
54832;DHT22;40730;53.068;6.572;2023-12-29T07:54:48;9.00;99.90
54832;DHT22;40730;53.068;6.572;2023-12-29T07:57:14;9.00;99.90
54832;DHT22;40730;53.068;6.572;2023-12-29T07:59:40;9.10;99.90
54832;DHT22;40730;53.068;6.572;2023-12-29T08:02:06;9.10;99.90
54832;DHT22;40730;53.068;6.572;2023-12-29T08:04:32;9.10;99.90
54832;DHT22;40730;53.068;6.572;2023-12-29T08:06:57;9.20;99.90
54832;DHT22;40730;53.068;6.572;2023-12-29T08:09:23;9.20;99.90
54832;DHT22;40730;53.068;6.572;2023-12-29T08:11:49;9.20;99.90
54832;DHT22;40730;53.068;6.572;2023-12-29T08:14:15;9.20;99.90
54832;DHT22;40730;53.068;6.572;2023-12-29T08:16:41;9.20;99.90
54832;DHT22;40730;53.068;6.572;2023-12-29T08:19:07;9.20;99.90
54832;DHT22;40730;53.068;6.572;2023-12-29T08:21:33;9.30;99.90
54832;DHT22;40730;53.068;6.572;2023-12-29T08:23:59;9.30;99.90
54832;DHT22;40730;53.068;6.572;2023-12-29T08:26:25;9.40;99.90
54832;DHT22;40730;53.068;6.572;2023-12-29T08:28:51;9.40;99.90
54832;DHT22;40730;53.068;6.572;2023-12-29T08:31:18;9.40;99.90
54832;DHT22;40730;53.068;6.572;2023-12-29T08:33:44;9.40;99.90
54832;DHT22;40730;53.068;6.572;2023-12-29T08:36:12;9.40;99.90
54832;DHT22;40730;53.068;6.572;2023-12-29T08:38:38;9.40;99.90
54832;DHT22;40730;53.068;6.572;2023-12-29T08:41:03;9.40;99.90
54832;DHT22;40730;53.068;6.572;2023-12-29T08:43:30;9.40;99.90
54832;DHT22;40730;53.068;6.572;2023-12-29T08:45:56;9.40;99.90
54832;DHT22;40730;53.068;6.572;2023-12-29T08:48:22;9.30;99.90
54832;DHT22;40730;53.068;6.572;2023-12-29T08:50:48;9.30;99.90
54832;DHT22;40730;53.068;6.572;2023-12-29T08:53:13;9.30;99.90
54832;DHT22;40730;53.068;6.572;2023-12-29T08:55:40;9.30;99.90
54832;DHT22;40730;53.068;6.572;2023-12-29T08:58:05;9.30;99.90
54832;DHT22;40730;53.068;6.572;2023-12-29T09:00:31;9.30;99.90
54832;DHT22;40730;53.068;6.572;2023-12-29T09:02:57;9.30;99.90
54832;DHT22;40730;53.068;6.572;2023-12-29T09:05:22;9.40;99.90
54832;DHT22;40730;53.068;6.572;2023-12-29T09:07:48;9.40;99.90
54832;DHT22;40730;53.068;6.572;2023-12-29T09:10:14;9.40;99.90
54832;DHT22;40730;53.068;6.572;2023-12-29T09:12:40;9.40;99.90
54832;DHT22;40730;53.068;6.572;2023-12-29T09:15:07;9.30;99.90
54832;DHT22;40730;53.068;6.572;2023-12-29T09:17:33;9.30;99.90
54832;DHT22;40730;53.068;6.572;2023-12-29T09:19:59;9.40;99.90
54832;DHT22;40730;53.068;6.572;2023-12-29T09:22:24;9.40;99.90
54832;DHT22;40730;53.068;6.572;2023-12-29T09:24:50;9.50;99.90
54832;DHT22;40730;53.068;6.572;2023-12-29T09:27:16;9.50;99.90
54832;DHT22;40730;53.068;6.572;2023-12-29T09:29:42;9.40;99.90
54832;DHT22;40730;53.068;6.572;2023-12-29T09:32:08;9.40;99.90
54832;DHT22;40730;53.068;6.572;2023-12-29T09:34:34;9.40;99.90
54832;DHT22;40730;53.068;6.572;2023-12-29T09:36:59;9.40;99.90
54832;DHT22;40730;53.068;6.572;2023-12-29T09:39:25;9.50;99.90
54832;DHT22;40730;53.068;6.572;2023-12-29T09:41:52;9.60;99.90
54832;DHT22;40730;53.068;6.572;2023-12-29T09:44:21;9.60;99.90
54832;DHT22;40730;53.068;6.572;2023-12-29T09:46:53;9.60;99.90
54832;DHT22;40730;53.068;6.572;2023-12-29T09:49:19;9.60;99.90
54832;DHT22;40730;53.068;6.572;2023-12-29T09:51:45;9.60;99.90
54832;DHT22;40730;53.068;6.572;2023-12-29T09:54:11;9.60;99.90
54832;DHT22;40730;53.068;6.572;2023-12-29T09:56:39;9.60;99.90
54832;DHT22;40730;53.068;6.572;2023-12-29T09:59:05;9.60;99.90
54832;DHT22;40730;53.068;6.572;2023-12-29T10:01:32;9.60;99.90
54832;DHT22;40730;53.068;6.572;2023-12-29T10:03:58;9.60;99.90
54832;DHT22;40730;53.068;6.572;2023-12-29T10:06:25;9.60;99.90
54832;DHT22;40730;53.068;6.572;2023-12-29T10:08:51;9.60;99.90
54832;DHT22;40730;53.068;6.572;2023-12-29T10:11:20;9.60;99.90
54832;DHT22;40730;53.068;6.572;2023-12-29T10:13:54;9.60;99.90
54832;DHT22;40730;53.068;6.572;2023-12-29T10:16:38;9.70;99.90
54832;DHT22;40730;53.068;6.572;2023-12-29T10:22:03;9.80;99.90
54832;DHT22;40730;53.068;6.572;2023-12-29T10:24:30;9.80;99.90
54832;DHT22;40730;53.068;6.572;2023-12-29T10:26:56;9.80;99.90
54832;DHT22;40730;53.068;6.572;2023-12-29T10:29:22;9.80;99.90
54832;DHT22;40730;53.068;6.572;2023-12-29T10:31:48;9.90;99.90
54832;DHT22;40730;53.068;6.572;2023-12-29T10:34:21;9.90;99.90
54832;DHT22;40730;53.068;6.572;2023-12-29T10:36:58;9.90;99.90
54832;DHT22;40730;53.068;6.572;2023-12-29T10:39:24;10.00;99.90
54832;DHT22;40730;53.068;6.572;2023-12-29T10:41:50;10.00;99.90
54832;DHT22;40730;53.068;6.572;2023-12-29T10:44:27;10.00;99.90
54832;DHT22;40730;53.068;6.572;2023-12-29T10:46:53;10.00;99.90
54832;DHT22;40730;53.068;6.572;2023-12-29T10:49:18;9.90;99.90
54832;DHT22;40730;53.068;6.572;2023-12-29T10:51:44;9.90;99.90
54832;DHT22;40730;53.068;6.572;2023-12-29T10:54:19;9.80;99.90
54832;DHT22;40730;53.068;6.572;2023-12-29T10:56:45;9.60;99.90
54832;DHT22;40730;53.068;6.572;2023-12-29T10:59:12;9.50;99.90
54832;DHT22;40730;53.068;6.572;2023-12-29T11:01:38;9.50;99.90
54832;DHT22;40730;53.068;6.572;2023-12-29T11:04:05;9.50;99.90
54832;DHT22;40730;53.068;6.572;2023-12-29T11:06:44;9.40;99.90
54832;DHT22;40730;53.068;6.572;2023-12-29T11:09:12;9.40;99.90
54832;DHT22;40730;53.068;6.572;2023-12-29T11:11:38;9.30;99.90
54832;DHT22;40730;53.068;6.572;2023-12-29T11:14:04;9.50;99.90
54832;DHT22;40730;53.068;6.572;2023-12-29T11:16:30;9.50;99.90
54832;DHT22;40730;53.068;6.572;2023-12-29T11:19:00;9.50;99.90
54832;DHT22;40730;53.068;6.572;2023-12-29T11:21:27;9.60;99.90
54832;DHT22;40730;53.068;6.572;2023-12-29T11:23:55;9.60;99.90
54832;DHT22;40730;53.068;6.572;2023-12-29T11:26:21;9.60;99.90
54832;DHT22;40730;53.068;6.572;2023-12-29T11:28:48;9.70;99.90
54832;DHT22;40730;53.068;6.572;2023-12-29T11:31:17;9.80;99.90
54832;DHT22;40730;53.068;6.572;2023-12-29T11:33:52;9.90;99.90
54832;DHT22;40730;53.068;6.572;2023-12-29T11:36:32;10.00;99.90
54832;DHT22;40730;53.068;6.572;2023-12-29T11:42:12;10.20;99.90
54832;DHT22;40730;53.068;6.572;2023-12-29T11:44:39;10.20;99.90
54832;DHT22;40730;53.068;6.572;2023-12-29T11:47:05;10.20;99.90
54832;DHT22;40730;53.068;6.572;2023-12-29T11:49:59;10.20;99.90
54832;DHT22;40730;53.068;6.572;2023-12-29T11:52:36;10.50;99.90
54832;DHT22;40730;53.068;6.572;2023-12-29T11:55:13;10.50;99.90
54832;DHT22;40730;53.068;6.572;2023-12-29T11:57:42;10.50;99.90
54832;DHT22;40730;53.068;6.572;2023-12-29T12:00:08;10.40;99.90
54832;DHT22;40730;53.068;6.572;2023-12-29T12:02:34;10.40;99.90
54832;DHT22;40730;53.068;6.572;2023-12-29T12:05:00;10.40;99.90
54832;DHT22;40730;53.068;6.572;2023-12-29T12:10:28;10.40;99.90
54832;DHT22;40730;53.068;6.572;2023-12-29T12:12:56;10.20;99.90
54832;DHT22;40730;53.068;6.572;2023-12-29T12:17:52;10.20;99.90
54832;DHT22;40730;53.068;6.572;2023-12-29T12:20:18;10.00;99.90
54832;DHT22;40730;53.068;6.572;2023-12-29T12:22:44;10.20;99.90
54832;DHT22;40730;53.068;6.572;2023-12-29T12:25:11;10.20;99.90
54832;DHT22;40730;53.068;6.572;2023-12-29T12:27:38;10.10;99.90
54832;DHT22;40730;53.068;6.572;2023-12-29T12:30:04;10.00;99.90
54832;DHT22;40730;53.068;6.572;2023-12-29T12:32:30;9.80;99.90
54832;DHT22;40730;53.068;6.572;2023-12-29T12:34:56;9.70;99.90
54832;DHT22;40730;53.068;6.572;2023-12-29T12:37:23;9.60;99.90
54832;DHT22;40730;53.068;6.572;2023-12-29T12:39:49;9.50;99.90
54832;DHT22;40730;53.068;6.572;2023-12-29T12:42:16;9.50;99.90
54832;DHT22;40730;53.068;6.572;2023-12-29T12:47:45;9.40;99.90
54832;DHT22;40730;53.068;6.572;2023-12-29T12:50:12;9.40;99.90
54832;DHT22;40730;53.068;6.572;2023-12-29T12:52:38;9.40;99.90
54832;DHT22;40730;53.068;6.572;2023-12-29T12:55:06;9.40;99.90
54832;DHT22;40730;53.068;6.572;2023-12-29T12:57:33;9.40;99.90
54832;DHT22;40730;53.068;6.572;2023-12-29T13:00:00;9.40;99.90
54832;DHT22;40730;53.068;6.572;2023-12-29T13:02:27;9.40;99.90
54832;DHT22;40730;53.068;6.572;2023-12-29T13:04:53;9.40;99.90
54832;DHT22;40730;53.068;6.572;2023-12-29T13:07:20;9.40;99.90
54832;DHT22;40730;53.068;6.572;2023-12-29T13:09:46;9.40;99.90
54832;DHT22;40730;53.068;6.572;2023-12-29T13:12:14;9.40;99.90
54832;DHT22;40730;53.068;6.572;2023-12-29T13:14:41;9.40;99.90
54832;DHT22;40730;53.068;6.572;2023-12-29T13:17:17;9.40;99.90
54832;DHT22;40730;53.068;6.572;2023-12-29T13:19:43;9.40;99.90
54832;DHT22;40730;53.068;6.572;2023-12-29T13:22:12;9.40;99.90
54832;DHT22;40730;53.068;6.572;2023-12-29T13:24:46;9.40;99.90
54832;DHT22;40730;53.068;6.572;2023-12-29T13:27:13;9.40;99.90
54832;DHT22;40730;53.068;6.572;2023-12-29T13:29:39;9.40;99.90
54832;DHT22;40730;53.068;6.572;2023-12-29T13:32:15;9.40;99.90
54832;DHT22;40730;53.068;6.572;2023-12-29T13:35:02;9.40;99.90
54832;DHT22;40730;53.068;6.572;2023-12-29T13:38:02;9.40;99.90
54832;DHT22;40730;53.068;6.572;2023-12-29T13:40:38;9.30;99.90
54832;DHT22;40730;53.068;6.572;2023-12-29T13:43:08;9.40;99.90
54832;DHT22;40730;53.068;6.572;2023-12-29T13:45:34;9.30;99.90
54832;DHT22;40730;53.068;6.572;2023-12-29T13:48:01;9.30;99.90
54832;DHT22;40730;53.068;6.572;2023-12-29T13:50:28;9.20;99.90
54832;DHT22;40730;53.068;6.572;2023-12-29T13:52:53;9.10;99.90
54832;DHT22;40730;53.068;6.572;2023-12-29T13:55:23;9.10;99.90
54832;DHT22;40730;53.068;6.572;2023-12-29T13:57:49;9.00;99.90
54832;DHT22;40730;53.068;6.572;2023-12-29T14:00:15;9.00;99.90
54832;DHT22;40730;53.068;6.572;2023-12-29T14:02:44;9.00;99.90
54832;DHT22;40730;53.068;6.572;2023-12-29T14:05:14;8.90;99.90
54832;DHT22;40730;53.068;6.572;2023-12-29T14:07:45;8.90;99.90
54832;DHT22;40730;53.068;6.572;2023-12-29T14:10:13;8.90;99.90
54832;DHT22;40730;53.068;6.572;2023-12-29T14:12:38;8.80;99.90
54832;DHT22;40730;53.068;6.572;2023-12-29T14:15:05;8.90;99.90
54832;DHT22;40730;53.068;6.572;2023-12-29T14:17:30;8.90;99.90
54832;DHT22;40730;53.068;6.572;2023-12-29T14:19:56;8.90;99.90
54832;DHT22;40730;53.068;6.572;2023-12-29T14:22:28;8.90;99.90
54832;DHT22;40730;53.068;6.572;2023-12-29T14:25:01;8.80;99.90
54832;DHT22;40730;53.068;6.572;2023-12-29T14:27:28;8.80;99.90
54832;DHT22;40730;53.068;6.572;2023-12-29T14:29:53;8.80;99.90
54832;DHT22;40730;53.068;6.572;2023-12-29T14:32:19;8.80;99.90
54832;DHT22;40730;53.068;6.572;2023-12-29T14:34:50;8.70;99.90
54832;DHT22;40730;53.068;6.572;2023-12-29T14:37:21;8.70;99.90
54832;DHT22;40730;53.068;6.572;2023-12-29T14:39:51;8.60;99.90
54832;DHT22;40730;53.068;6.572;2023-12-29T14:42:17;8.60;99.90
54832;DHT22;40730;53.068;6.572;2023-12-29T14:44:45;8.60;99.90
54832;DHT22;40730;53.068;6.572;2023-12-29T14:47:12;8.60;99.90
54832;DHT22;40730;53.068;6.572;2023-12-29T14:49:38;8.60;99.90
54832;DHT22;40730;53.068;6.572;2023-12-29T14:52:04;8.50;99.90
54832;DHT22;40730;53.068;6.572;2023-12-29T14:54:29;8.60;99.90
54832;DHT22;40730;53.068;6.572;2023-12-29T14:56:55;8.50;99.90
54832;DHT22;40730;53.068;6.572;2023-12-29T14:59:20;8.50;99.90
54832;DHT22;40730;53.068;6.572;2023-12-29T15:01:46;8.40;99.90
54832;DHT22;40730;53.068;6.572;2023-12-29T15:04:12;8.40;99.90
54832;DHT22;40730;53.068;6.572;2023-12-29T15:06:39;8.40;99.90
54832;DHT22;40730;53.068;6.572;2023-12-29T15:09:04;8.30;99.90
54832;DHT22;40730;53.068;6.572;2023-12-29T15:11:32;8.40;99.90
54832;DHT22;40730;53.068;6.572;2023-12-29T15:13:58;8.40;99.90
54832;DHT22;40730;53.068;6.572;2023-12-29T15:16:24;8.30;99.90
54832;DHT22;40730;53.068;6.572;2023-12-29T15:18:49;8.30;99.90
54832;DHT22;40730;53.068;6.572;2023-12-29T15:21:15;8.30;99.90
54832;DHT22;40730;53.068;6.572;2023-12-29T15:23:40;8.30;99.90
54832;DHT22;40730;53.068;6.572;2023-12-29T15:26:06;8.20;99.90
54832;DHT22;40730;53.068;6.572;2023-12-29T15:28:32;8.20;99.90
54832;DHT22;40730;53.068;6.572;2023-12-29T15:30:57;8.30;99.90
54832;DHT22;40730;53.068;6.572;2023-12-29T15:33:23;8.30;99.90
54832;DHT22;40730;53.068;6.572;2023-12-29T15:35:50;8.30;99.90
54832;DHT22;40730;53.068;6.572;2023-12-29T15:38:16;8.30;99.90
54832;DHT22;40730;53.068;6.572;2023-12-29T15:40:42;8.20;99.90
54832;DHT22;40730;53.068;6.572;2023-12-29T15:43:07;8.20;99.90
54832;DHT22;40730;53.068;6.572;2023-12-29T15:45:33;8.20;99.90
54832;DHT22;40730;53.068;6.572;2023-12-29T15:47:59;8.20;99.90
54832;DHT22;40730;53.068;6.572;2023-12-29T15:50:24;8.20;99.90
54832;DHT22;40730;53.068;6.572;2023-12-29T15:52:50;8.20;99.90
54832;DHT22;40730;53.068;6.572;2023-12-29T15:55:16;8.20;99.90
54832;DHT22;40730;53.068;6.572;2023-12-29T15:57:41;8.20;99.90
54832;DHT22;40730;53.068;6.572;2023-12-29T16:00:07;8.20;99.90